Americus, GA (31709)

2:55 AM EST on January 26, 2015 (GMT -0500)
RAWS AMERICUS/PLAINS GA US | Change Station
CLOSE
Current Station
Personal Weather Station
Location: Americus, GA
Elevation: 456 ft
Nearby Weather Stations

Elev 456 ft 32.11 °N, 84.18 °W | Updated 52 minutes ago

Clear
Clear
47 °F
Feels Like 45 °F
N
5
Wind Variable Wind from WSW
Gusts 8.0 mph

Today
High -- | Low -- °F
--% Chance of Precip.
Yesterday
High -- | Low -- °F
Precip. -- in
7:34 AM 6:05 PM
Waxing Crescent, 40% visible
Pressure 29.81 in
Visibility 10.0 miles
Clouds Scattered Clouds 5500 ft
Windchill 45 °F
Dew Point 44 °F
Humidity 88%
Rainfall 0.00 in
Snow Depth Not available.
UV 0 out of 12
Pollen 2.50 out of 12
Air Quality Not available.
Flu Activity Not available.
METAR KACJ 260735Z AUTO 25005KT 10SM SCT055 08/06 A2981 RMK AO2

More Conditions Fewer Conditions

Pressure 29.81 in
Visibility 10.0 miles
Clouds Scattered Clouds 5500 ft
Windchill 45 °F
Dew Point 44 °F
Humidity 88%
Rainfall 0.00 in
Snow Depth Not available.
UV 0 out of 12
Pollen 2.50 out of 12
Air Quality Not available.
Flu Activity Not available.
METAR KACJ 260735Z AUTO 25005KT 10SM SCT055 08/06 A2981 RMK AO2

More Conditions Fewer Conditions

10-Day Weather Forecast

Almanac

Astronomy

Jan. 26, 2015 Rise Set
Actual Time
Civil Twilight
Nautical Twilight
Astronomical Twilight
Moon
Length of Visible Light
Length of Day
Tomorrow will be .
, % of the Moon is Illuminated

Today's Extremes

State Highs State Lows

Community

WunderPhotos

Upload Photos

1,790,155 photos uploaded!

WunderBlogs® & News

Nearby

Air Quality

  Air Quality AQ Index Pollutant
Not available.

Snow Depth

Station Depth Elevation

Earthquake Activity

City Distance Mag. Time & Date
Minimum magnitude displayed is 2.5.

Coastal Water Temperatures

Place Temperature

Nearby Weather Stations